Time;durP1;ratioP1;P1;durP2;ratioP2;P2;SDS_P1;SDS_P2;PMS_P1;PMS_P2;Temp;Humidity;BMP_temperature;BMP_pressure;BME280_temperature;BME280_humidity;BME280_pressure;Samples;Min_cycle;Max_cycle;Signal;HPM_P1;HPM_P2
2022/07/26 00:01:57;;;;;;;5.57;2.13;;;23.20;91.40;;;;;;2586963;54;20030;31
2022/07/26 00:04:32;;;;;;;6.65;2.30;;;23.10;91.30;;;;;;2586573;54;20544;31
2022/07/26 00:07:07;;;;;;;6.97;1.90;;;23.10;91.50;;;;;;2586989;54;20920;31
2022/07/26 00:09:42;;;;;;;4.15;2.00;;;23.20;91.70;;;;;;2586833;54;20859;31
2022/07/26 00:12:21;;;;;;;3.57;1.93;;;23.20;91.70;;;;;;2586413;54;20036;31
2022/07/26 00:14:55;;;;;;;4.75;2.00;;;23.20;92.00;;;;;;2586692;54;20046;31
2022/07/26 00:17:28;;;;;;;6.00;2.47;;;23.20;91.70;;;;;;2586944;54;20816;31
2022/07/26 00:20:00;;;;;;;6.65;2.33;;;23.10;91.80;;;;;;2586571;54;20056;31
2022/07/26 00:22:38;;;;;;;5.45;2.00;;;23.10;92.00;;;;;;2586682;54;20507;31
2022/07/26 00:25:13;;;;;;;3.28;2.00;;;23.10;92.00;;;;;;2586507;54;20815;31
2022/07/26 00:27:51;;;;;;;6.10;2.37;;;23.10;92.30;;;;;;2586868;54;20886;31
2022/07/26 00:30:25;;;;;;;5.03;2.22;;;23.10;92.60;;;;;;2586632;54;20250;31
2022/07/26 00:32:59;;;;;;;7.10;2.50;;;23.00;92.70;;;;;;2586786;54;20865;31
2022/07/26 00:35:33;;;;;;;3.85;1.98;;;23.00;92.80;;;;;;2586510;54;20122;31
2022/07/26 00:38:07;;;;;;;5.10;2.20;;;23.00;93.00;;;;;;2586637;54;20052;31
2022/07/26 00:40:41;;;;;;;3.75;2.15;;;22.90;93.00;;;;;;2605147;46;20765;31
2022/07/26 00:43:21;;;;;;;6.90;2.47;;;23.00;92.70;;;;;;2586595;54;20381;31
2022/07/26 00:45:56;;;;;;;6.20;2.08;;;22.90;93.50;;;;;;2586613;54;20093;31
2022/07/26 00:48:29;;;;;;;6.70;2.40;;;22.90;93.40;;;;;;2586637;54;20855;31
2022/07/26 00:51:03;;;;;;;7.43;2.40;;;22.90;93.80;;;;;;2586765;54;20880;31
2022/07/26 00:53:38;;;;;;;5.93;2.30;;;22.80;93.60;;;;;;2586196;54;20089;31
2022/07/26 00:56:09;;;;;;;4.50;2.50;;;22.80;93.90;;;;;;2604986;46;20958;31
2022/07/26 00:58:45;;;;;;;3.78;1.83;;;22.80;93.90;;;;;;2586511;54;20050;31
2022/07/26 01:01:19;;;;;;;7.25;2.45;;;22.90;93.60;;;;;;2586881;54;20905;31
2022/07/26 01:03:52;;;;;;;4.85;2.25;;;22.90;93.90;;;;;;2604918;46;20029;31
2022/07/26 01:06:24;;;;;;;8.20;2.40;;;22.80;93.70;;;;;;2586831;54;20843;31
2022/07/26 01:08:59;;;;;;;2.80;2.10;;;22.80;94.00;;;;;;2586522;54;20922;31
2022/07/26 01:11:35;;;;;;;3.83;2.33;;;22.80;94.10;;;;;;2586552;54;20169;31
2022/07/26 01:14:12;;;;;;;5.50;2.40;;;22.70;93.90;;;;;;2586639;54;21414;31
2022/07/26 01:19:13;;;;;;;6.93;2.20;;;22.80;94.80;;;;;;2585419;54;20034;31
2022/07/26 01:21:49;;;;;;;7.70;2.45;;;22.70;95.20;;;;;;2586667;54;20030;31
2022/07/26 01:24:22;;;;;;;;;;;22.70;95.30;;;;;;2586720;54;20913;31
2022/07/26 01:26:57;;;;;;;4.05;2.70;;;22.60;95.40;;;;;;2586452;54;20718;31
2022/07/26 01:29:29;;;;;;;8.68;2.58;;;22.60;95.20;;;;;;2586567;54;20042;31
2022/07/26 01:32:10;;;;;;;5.10;2.45;;;22.50;95.10;;;;;;2586807;54;20031;31
2022/07/26 01:34:43;;;;;;;8.60;2.05;;;22.60;95.50;;;;;;2586510;54;20755;31
2022/07/26 01:37:20;;;;;;;7.00;2.30;;;22.50;95.40;;;;;;2586272;54;20908;31
2022/07/26 01:39:53;;;;;;;6.57;2.63;;;22.60;95.60;;;;;;2586306;54;21029;31
2022/07/26 01:42:27;;;;;;;7.43;2.58;;;22.60;96.30;;;;;;2586153;54;20156;31
2022/07/26 01:45:02;;;;;;;8.52;3.20;;;22.50;96.10;;;;;;2702726;39;20502;31
2022/07/26 01:47:36;;;;;;;5.75;2.30;;;22.40;96.60;;;;;;2586750;54;20038;31
2022/07/26 01:50:11;;;;;;;5.60;2.35;;;22.40;97.30;;;;;;2586483;54;21381;31
2022/07/26 01:52:47;;;;;;;4.57;2.17;;;22.30;97.40;;;;;;2586634;54;20945;31
2022/07/26 01:55:22;;;;;;;6.65;2.60;;;22.30;97.10;;;;;;2604780;46;20124;31
2022/07/26 01:57:55;;;;;;;5.10;2.85;;;22.20;97.90;;;;;;2585341;54;20170;31
2022/07/26 02:00:30;;;;;;;7.63;2.65;;;22.30;98.20;;;;;;2605222;46;20877;31
2022/07/26 02:03:04;;;;;;;10.00;3.20;;;22.30;98.30;;;;;;2754952;31;21374;31
2022/07/26 02:05:39;;;;;;;5.45;2.70;;;22.30;98.50;;;;;;2586330;54;20026;31
2022/07/26 02:08:18;;;;;;;4.80;3.05;;;22.30;99.20;;;;;;2586297;54;20045;31
2022/07/26 02:11:03;;;;;;;6.38;3.00;;;22.30;99.80;;;;;;2586538;54;20889;31
2022/07/26 02:13:36;;;;;;;7.63;3.55;;;22.30;99.90;;;;;;2586340;54;20046;31
2022/07/26 02:16:11;;;;;;;6.47;3.40;;;22.30;99.90;;;;;;2702752;39;21080;31
2022/07/26 02:18:42;;;;;;;6.05;2.38;;;22.20;99.90;;;;;;2586159;54;20898;31
2022/07/26 02:21:15;;;;;;;10.93;3.70;;;22.20;99.90;;;;;;2586280;54;20516;31
2022/07/26 02:23:54;;;;;;;7.87;3.00;;;22.20;99.90;;;;;;2684220;39;21630;31
2022/07/26 02:26:26;;;;;;;10.25;3.55;;;22.20;99.90;;;;;;2604936;46;20116;31
2022/07/26 02:29:00;;;;;;;5.80;3.17;;;22.10;99.90;;;;;;2586242;54;20034;31
2022/07/26 02:31:32;;;;;;;7.00;3.30;;;22.10;99.90;;;;;;2586386;54;20716;31
2022/07/26 02:34:04;;;;;;;8.27;3.17;;;22.00;99.90;;;;;;2604992;46;20030;31
2022/07/26 02:36:38;;;;;;;7.60;2.80;;;21.90;99.90;;;;;;2591509;46;20054;31
2022/07/26 02:39:13;;;;;;;6.40;2.95;;;21.90;99.90;;;;;;2586005;54;20602;31
2022/07/26 02:41:46;;;;;;;6.18;3.10;;;21.80;99.90;;;;;;2585786;54;20861;31
2022/07/26 02:44:18;;;;;;;9.15;3.90;;;21.80;99.90;;;;;;2586249;54;20751;31
2022/07/26 02:46:51;;;;;;;4.80;2.90;;;21.80;99.90;;;;;;2586068;54;20027;31
2022/07/26 02:49:23;;;;;;;6.63;3.53;;;21.60;99.90;;;;;;2586236;54;20912;31
2022/07/26 02:51:58;;;;;;;7.38;4.25;;;21.60;99.90;;;;;;2586197;54;20986;31
2022/07/26 02:54:34;;;;;;;8.40;3.90;;;21.50;99.90;;;;;;2586039;54;20030;31
2022/07/26 02:57:07;;;;;;;;;;;21.50;99.90;;;;;;2586179;54;20052;31
2022/07/26 02:59:41;;;;;;;8.75;4.45;;;21.40;99.90;;;;;;2585937;54;20865;31
2022/07/26 03:02:18;;;;;;;5.20;3.90;;;21.40;99.90;;;;;;2586183;54;20855;31
2022/07/26 03:04:53;;;;;;;5.83;4.23;;;21.30;99.90;;;;;;2585757;54;20243;31
2022/07/26 03:07:25;;;;;;;7.30;5.30;;;21.30;99.90;;;;;;2586030;54;20302;31
2022/07/26 03:10:03;;;;;;;10.05;5.65;;;21.30;99.90;;;;;;2604464;47;20054;31
2022/07/26 03:12:37;;;;;;;11.00;5.40;;;21.20;99.90;;;;;;2586103;54;19960;31
2022/07/26 03:15:12;;;;;;;12.65;6.03;;;21.30;99.90;;;;;;2585855;54;20030;31
2022/07/26 03:17:44;;;;;;;9.48;5.68;;;21.30;99.90;;;;;;2586098;54;20909;31
2022/07/26 03:20:26;;;;;;;9.82;6.43;;;21.30;99.90;;;;;;2585441;54;20850;31
2022/07/26 03:22:58;;;;;;;15.57;6.85;;;21.20;99.90;;;;;;2585762;54;20608;31
2022/07/26 03:25:36;;;;;;;13.55;6.28;;;21.20;99.90;;;;;;2586152;54;20894;31
2022/07/26 03:28:10;;;;;;;9.20;7.15;;;21.20;99.90;;;;;;2585930;54;20081;31
2022/07/26 03:30:51;;;;;;;11.85;7.65;;;21.20;99.90;;;;;;2586275;54;20027;31
2022/07/26 03:33:25;;;;;;;10.85;7.30;;;21.20;99.90;;;;;;2586848;54;21206;31
2022/07/26 03:35:57;;;;;;;12.05;7.90;;;21.20;99.90;;;;;;2586944;54;20834;31
2022/07/26 03:38:28;;;;;;;10.90;7.60;;;21.20;99.90;;;;;;2605215;46;20898;31
2022/07/26 03:41:04;;;;;;;12.53;7.73;;;21.20;99.90;;;;;;2587042;54;20901;31
2022/07/26 03:43:37;;;;;;;10.50;8.30;;;21.10;99.90;;;;;;2605735;46;20794;31
2022/07/26 03:46:11;;;;;;;10.90;9.05;;;21.10;99.90;;;;;;2605236;46;20751;31
2022/07/26 03:48:46;;;;;;;10.75;8.45;;;21.00;99.90;;;;;;2586707;54;20847;31
2022/07/26 03:51:20;;;;;;;12.53;9.20;;;21.10;99.90;;;;;;2586571;54;20509;31
2022/07/26 03:53:53;;;;;;;11.65;10.35;;;21.10;99.90;;;;;;2605453;46;20854;31
2022/07/26 03:56:44;;;;;;;12.05;9.30;;;21.00;99.90;;;;;;2586836;54;20053;31
2022/07/26 03:59:19;;;;;;;10.55;9.45;;;21.00;99.90;;;;;;2586231;54;20485;31
2022/07/26 04:01:51;;;;;;;12.52;10.18;;;21.00;99.90;;;;;;2585922;54;20089;31
2022/07/26 04:04:26;;;;;;;13.80;10.85;;;21.00;99.90;;;;;;2586853;54;20838;31
2022/07/26 04:07:00;;;;;;;13.93;11.23;;;21.00;99.90;;;;;;2586647;54;20093;31
2022/07/26 04:09:34;;;;;;;17.10;11.98;;;21.00;99.90;;;;;;2586621;54;19957;31
2022/07/26 04:12:12;;;;;;;12.68;11.45;;;21.00;99.90;;;;;;2586847;54;20802;31
2022/07/26 04:14:46;;;;;;;14.83;12.17;;;21.10;99.90;;;;;;2586883;54;20875;31
2022/07/26 04:17:21;;;;;;;15.13;12.37;;;21.10;99.90;;;;;;2586689;54;20767;31
2022/07/26 04:19:54;;;;;;;14.60;11.77;;;21.10;99.90;;;;;;2605080;46;20334;31
2022/07/26 04:22:30;;;;;;;17.30;12.50;;;21.10;99.90;;;;;;2586661;54;20852;31
2022/07/26 04:25:05;;;;;;;15.05;12.30;;;21.10;99.90;;;;;;2684519;39;20849;31
2022/07/26 04:27:41;;;;;;;14.60;13.03;;;21.10;99.90;;;;;;2586710;54;20073;31
2022/07/26 04:30:17;;;;;;;13.73;12.27;;;21.20;99.90;;;;;;2586787;54;21045;31
2022/07/26 04:32:51;;;;;;;14.00;12.60;;;21.10;99.90;;;;;;2586664;54;20030;31
2022/07/26 04:35:26;;;;;;;13.40;12.10;;;21.10;99.90;;;;;;2586771;54;21303;31
2022/07/26 04:38:02;;;;;;;12.88;11.32;;;21.20;99.90;;;;;;2585817;54;21128;31
2022/07/26 04:40:35;;;;;;;13.03;11.50;;;21.20;99.90;;;;;;2585638;54;20047;31
2022/07/26 04:43:15;;;;;;;12.32;11.02;;;21.20;99.90;;;;;;2586438;54;21196;31
2022/07/26 04:45:50;;;;;;;11.55;10.27;;;21.20;99.90;;;;;;2703184;39;20431;31
2022/07/26 04:48:25;;;;;;;11.02;9.45;;;21.20;99.90;;;;;;2586764;54;20026;31
2022/07/26 04:50:57;;;;;;;9.83;8.77;;;21.20;99.90;;;;;;2586665;54;20027;31
2022/07/26 04:53:31;;;;;;;9.02;8.23;;;21.30;99.90;;;;;;2586377;54;20031;31
2022/07/26 04:56:05;;;;;;;10.15;8.20;;;21.30;99.90;;;;;;2586433;54;20887;31
2022/07/26 04:58:43;;;;;;;9.00;8.10;;;21.30;99.90;;;;;;2604756;46;20034;31
2022/07/26 05:01:18;;;;;;;12.43;6.47;;;21.20;99.90;;;;;;2604946;46;20065;31
2022/07/26 05:03:53;;;;;;;10.82;7.40;;;21.40;99.90;;;;;;2586509;54;20052;31
2022/07/26 05:06:32;;;;;;;8.80;7.93;;;21.50;99.90;;;;;;2605160;46;20871;31
2022/07/26 05:09:07;;;;;;;;;;;21.70;99.90;;;;;;2604935;46;21380;31
2022/07/26 05:11:42;;;;;;;8.87;6.60;;;21.60;99.90;;;;;;2586682;54;19935;31
2022/07/26 05:14:19;;;;;;;7.80;6.40;;;21.70;99.90;;;;;;2586708;54;20887;31
2022/07/26 05:16:54;;;;;;;10.00;6.50;;;21.70;99.90;;;;;;2586734;54;20859;31
2022/07/26 05:19:33;;;;;;;7.07;6.38;;;21.70;99.90;;;;;;2586369;54;20093;31
2022/07/26 05:22:08;;;;;;;8.45;6.25;;;21.80;99.90;;;;;;2586683;54;20990;31
2022/07/26 05:24:44;;;;;;;7.70;6.30;;;21.90;99.90;;;;;;2586535;54;20920;31
2022/07/26 05:27:17;;;;;;;5.80;4.97;;;22.00;99.90;;;;;;2586649;54;20027;31
2022/07/26 05:29:53;;;;;;;7.05;5.25;;;22.10;99.90;;;;;;2585604;54;20029;31
2022/07/26 05:32:28;;;;;;;6.93;5.43;;;22.00;99.90;;;;;;2604893;46;20101;31
2022/07/26 05:35:02;;;;;;;12.50;5.70;;;22.20;99.90;;;;;;2586471;54;21242;31
2022/07/26 05:37:37;;;;;;;6.13;5.53;;;22.10;99.90;;;;;;2604828;46;20589;31
2022/07/26 05:40:11;;;;;;;6.95;5.10;;;22.10;99.90;;;;;;2586481;54;20052;31
2022/07/26 05:42:46;;;;;;;5.65;4.70;;;22.20;99.90;;;;;;2586598;54;20860;31
2022/07/26 05:45:22;;;;;;;5.07;4.10;;;22.10;99.90;;;;;;2586267;54;20850;31
2022/07/26 05:47:55;;;;;;;8.43;5.32;;;22.10;99.90;;;;;;2586417;54;20843;31
2022/07/26 05:50:31;;;;;;;5.43;4.45;;;21.90;99.90;;;;;;2586295;54;20840;31
2022/07/26 05:53:06;;;;;;;7.85;4.40;;;21.90;99.90;;;;;;2586452;54;20744;31
2022/07/26 05:55:44;;;;;;;8.70;5.07;;;21.80;99.90;;;;;;2586127;54;20031;31
2022/07/26 05:58:19;;;;;;;5.68;4.22;;;21.80;99.90;;;;;;2586308;54;20093;31
2022/07/26 06:00:57;;;;;;;5.87;4.83;;;21.80;99.90;;;;;;2586481;54;20954;31
2022/07/26 06:03:32;;;;;;;6.13;4.77;;;21.80;99.90;;;;;;2586384;54;20253;31
2022/07/26 06:06:08;;;;;;;5.97;4.50;;;21.80;99.90;;;;;;2586506;54;20038;31
2022/07/26 06:08:43;;;;;;;7.00;5.20;;;21.80;99.90;;;;;;2586027;54;20338;31
2022/07/26 06:13:44;;;;;;;10.40;5.00;;;21.80;99.90;;;;;;2586443;54;21100;31
2022/07/26 06:16:21;;;;;;;9.73;4.90;;;21.80;99.90;;;;;;2586201;54;20575;31
2022/07/26 06:18:55;;;;;;;6.37;4.27;;;21.90;99.90;;;;;;2604681;46;20973;31
2022/07/26 06:21:28;;;;;;;6.57;4.60;;;21.90;99.90;;;;;;2604661;46;20485;31
2022/07/26 06:24:03;;;;;;;5.38;3.88;;;21.90;99.90;;;;;;2586316;54;20899;31
2022/07/26 06:26:38;;;;;;;6.80;4.27;;;21.90;99.90;;;;;;2586335;54;20030;31
2022/07/26 06:29:11;;;;;;;8.07;4.22;;;22.00;99.90;;;;;;2585545;54;20550;31
2022/07/26 06:31:48;;;;;;;5.20;3.60;;;21.90;99.90;;;;;;2586333;54;20939;31
2022/07/26 06:34:22;;;;;;;6.60;3.80;;;22.00;99.90;;;;;;2586240;54;20046;31
2022/07/26 06:36:54;;;;;;;4.85;3.30;;;22.00;99.90;;;;;;2586193;54;20949;31
2022/07/26 06:39:27;;;;;;;5.13;3.40;;;22.00;99.90;;;;;;2586193;54;20030;31
2022/07/26 06:42:02;;;;;;;5.65;3.85;;;21.90;99.90;;;;;;2586039;54;20514;31
2022/07/26 06:44:36;;;;;;;5.85;3.90;;;22.00;99.90;;;;;;2604731;46;20885;31
2022/07/26 06:47:11;;;;;;;5.28;3.83;;;21.90;99.90;;;;;;2586147;54;20137;31
2022/07/26 06:49:46;;;;;;;5.57;3.63;;;21.90;99.90;;;;;;2586162;54;20085;31
2022/07/26 06:52:21;;;;;;;5.77;4.33;;;21.90;99.90;;;;;;2586088;54;19989;31
2022/07/26 06:54:57;;;;;;;9.98;4.28;;;21.90;99.90;;;;;;2586064;54;20081;31
2022/07/26 06:57:31;;;;;;;5.22;4.15;;;21.90;99.90;;;;;;2586158;54;20123;31
2022/07/26 07:00:14;;;;;;;6.90;4.38;;;21.90;99.90;;;;;;2585987;54;20975;31
2022/07/26 07:02:52;;;;;;;6.78;4.07;;;21.90;99.90;;;;;;2586075;54;20037;31
2022/07/26 07:05:26;;;;;;;6.40;3.93;;;21.90;99.90;;;;;;2586584;54;20856;31
2022/07/26 07:08:03;;;;;;;10.75;4.70;;;22.00;99.90;;;;;;2587840;54;20881;31
2022/07/26 07:10:38;;;;;;;;;;;22.00;99.90;;;;;;2588357;54;20883;31
2022/07/26 07:13:13;;;;;;;6.70;4.53;;;22.00;99.90;;;;;;2606616;46;20732;31
2022/07/26 07:15:45;;;;;;;6.15;3.75;;;22.00;99.90;;;;;;2587853;54;20763;31
2022/07/26 07:18:22;;;;;;;5.85;3.55;;;22.00;99.90;;;;;;2588112;54;20758;31
2022/07/26 07:20:57;;;;;;;7.00;3.67;;;22.00;99.90;;;;;;2587576;54;20162;31
2022/07/26 07:23:34;;;;;;;6.80;3.88;;;22.00;99.90;;;;;;2588066;54;20026;31
2022/07/26 07:26:10;;;;;;;4.90;3.40;;;22.00;99.90;;;;;;2588032;54;20030;31
2022/07/26 07:28:44;;;;;;;5.60;3.58;;;22.00;99.90;;;;;;2685583;39;20704;31
2022/07/26 07:31:17;;;;;;;5.30;3.23;;;22.10;99.90;;;;;;2587625;54;20576;31
2022/07/26 07:33:55;;;;;;;5.18;3.42;;;22.10;99.90;;;;;;2587775;54;20972;31
2022/07/26 07:38:56;;;;;;;5.80;3.13;;;22.20;99.90;;;;;;2587465;54;20763;31
2022/07/26 07:41:37;;;;;;;5.00;3.25;;;22.20;99.90;;;;;;2605999;46;20050;31
2022/07/26 07:44:10;;;;;;;5.70;3.25;;;22.30;99.90;;;;;;2587403;54;20034;31
2022/07/26 07:46:44;;;;;;;6.35;3.45;;;22.40;99.90;;;;;;2587950;54;20026;31
2022/07/26 07:49:21;;;;;;;4.33;2.93;;;22.40;99.90;;;;;;2587804;54;20942;31
2022/07/26 07:51:55;;;;;;;4.80;3.30;;;22.40;99.90;;;;;;2587929;54;21101;31
2022/07/26 07:54:30;;;;;;;3.90;2.93;;;22.50;99.90;;;;;;2588028;54;20245;31
2022/07/26 07:57:03;;;;;;;6.57;3.47;;;22.50;99.90;;;;;;2587515;54;20212;31
2022/07/26 07:59:36;;;;;;;6.70;3.58;;;22.60;99.90;;;;;;2587493;54;20022;31
2022/07/26 08:02:11;;;;;;;5.20;3.30;;;22.70;99.90;;;;;;2586760;54;20037;31
2022/07/26 08:04:49;;;;;;;5.70;3.30;;;22.80;99.90;;;;;;2587673;54;20060;31
2022/07/26 08:07:24;;;;;;;6.90;4.00;;;22.90;99.90;;;;;;2587517;54;21340;31
2022/07/26 08:10:11;;;;;;;4.45;2.70;;;22.80;99.90;;;;;;2587662;54;20964;31
2022/07/26 08:12:45;;;;;;;5.57;3.10;;;22.90;99.90;;;;;;2703963;39;20562;31
2022/07/26 08:15:26;;;;;;;5.90;3.10;;;22.90;99.90;;;;;;2587731;54;20836;31
2022/07/26 08:17:58;;;;;;;6.68;2.95;;;23.00;99.90;;;;;;2684577;39;20526;31
2022/07/26 08:20:37;;;;;;;6.30;3.25;;;23.10;99.90;;;;;;2586775;54;20909;31
2022/07/26 08:23:11;;;;;;;5.80;2.75;;;23.10;99.90;;;;;;2605033;46;20525;31
2022/07/26 08:25:45;;;;;;;5.00;2.47;;;23.30;99.90;;;;;;2605777;46;20030;31
2022/07/26 08:28:30;;;;;;;6.25;2.90;;;23.40;99.90;;;;;;2605332;46;20766;31
2022/07/26 08:31:22;;;;;;;7.10;3.08;;;23.50;99.90;;;;;;2586712;54;20026;31
2022/07/26 08:33:56;;;;;;;6.43;3.17;;;23.60;99.90;;;;;;2586839;54;20891;31
2022/07/26 08:36:33;;;;;;;5.00;2.90;;;23.50;99.90;;;;;;2586954;54;20054;31
2022/07/26 08:39:07;;;;;;;4.05;2.60;;;23.60;99.90;;;;;;2605184;46;20103;31
2022/07/26 08:41:42;;;;;;;7.10;2.80;;;23.60;99.90;;;;;;2586718;54;20064;31
2022/07/26 08:44:16;;;;;;;5.40;3.00;;;23.60;99.90;;;;;;2586689;54;20153;31
2022/07/26 08:46:49;;;;;;;7.68;2.58;;;23.60;99.90;;;;;;2586696;54;20050;31
2022/07/26 08:49:23;;;;;;;6.00;2.75;;;23.60;99.90;;;;;;2586782;54;20066;31
2022/07/26 08:52:02;;;;;;;5.78;3.42;;;23.60;99.90;;;;;;2586568;54;20072;31
2022/07/26 08:54:35;;;;;;;5.30;2.70;;;23.50;99.90;;;;;;2586667;54;20835;31
2022/07/26 08:57:10;;;;;;;6.65;2.95;;;23.50;99.90;;;;;;2605392;46;21229;31
2022/07/26 08:59:41;;;;;;;5.15;2.10;;;23.50;99.90;;;;;;2586712;54;21189;31
2022/07/26 09:02:16;;;;;;;4.65;2.50;;;23.60;99.90;;;;;;2586538;54;20491;31
2022/07/26 09:04:53;;;;;;;4.70;2.10;;;23.60;99.90;;;;;;2586679;54;20042;31
2022/07/26 09:07:30;;;;;;;5.95;2.55;;;23.60;99.90;;;;;;2586648;54;20051;31
2022/07/26 09:10:07;;;;;;;6.57;2.42;;;23.60;99.90;;;;;;2684225;39;20605;31
2022/07/26 09:12:42;;;;;;;6.70;2.83;;;23.70;99.90;;;;;;2586857;54;20031;31
2022/07/26 09:15:25;;;;;;;5.50;2.50;;;23.80;99.90;;;;;;2604792;46;20568;31
2022/07/26 09:18:01;;;;;;;4.90;2.60;;;23.80;99.90;;;;;;2604911;46;19938;31
2022/07/26 09:20:34;;;;;;;5.80;2.17;;;23.90;99.90;;;;;;2604805;46;20267;31
2022/07/26 09:23:12;;;;;;;7.07;2.10;;;23.90;99.90;;;;;;2605164;46;20090;31
2022/07/26 09:25:46;;;;;;;5.57;2.50;;;23.80;99.90;;;;;;2586361;54;20041;31
2022/07/26 09:28:24;;;;;;;5.28;2.38;;;24.00;99.90;;;;;;2586596;54;20046;31
2022/07/26 09:31:00;;;;;;;9.85;2.40;;;24.00;99.90;;;;;;2586618;54;20059;31
2022/07/26 09:33:46;;;;;;;4.95;2.67;;;24.00;99.90;;;;;;2585403;54;21396;31
2022/07/26 09:36:24;;;;;;;5.65;2.15;;;24.00;99.90;;;;;;2586593;54;20120;31
2022/07/26 09:39:02;;;;;;;4.05;1.63;;;24.00;99.90;;;;;;2586541;54;20898;31
2022/07/26 09:41:39;;;;;;;5.32;2.22;;;24.10;99.90;;;;;;2586614;54;20030;31
2022/07/26 09:44:23;;;;;;;4.60;1.75;;;24.00;99.90;;;;;;2586437;54;20027;31
2022/07/26 09:46:58;;;;;;;2.93;1.80;;;24.00;99.90;;;;;;2586607;54;20942;31
2022/07/26 09:49:33;;;;;;;3.53;1.77;;;24.10;99.90;;;;;;2586721;54;20954;31
2022/07/26 09:52:17;;;;;;;5.40;2.05;;;24.10;99.90;;;;;;2586449;54;20030;31
2022/07/26 09:54:55;;;;;;;3.35;1.65;;;24.10;99.90;;;;;;2586516;54;20801;31
2022/07/26 09:57:29;;;;;;;4.50;1.95;;;24.10;99.90;;;;;;2604636;46;20517;31
2022/07/26 10:00:01;;;;;;;6.10;2.50;;;24.10;99.90;;;;;;2586289;54;20855;31
2022/07/26 10:02:37;;;;;;;5.60;1.97;;;24.20;99.90;;;;;;2586280;54;20034;31
2022/07/26 10:05:10;;;;;;;3.67;2.03;;;24.10;99.90;;;;;;2586370;54;20285;31
2022/07/26 10:07:45;;;;;;;2.33;1.50;;;24.10;99.90;;;;;;2586346;54;20031;31
2022/07/26 10:10:23;;;;;;;3.90;1.60;;;24.10;99.90;;;;;;2586307;54;21066;31
2022/07/26 10:13:01;;;;;;;6.05;2.10;;;24.10;99.90;;;;;;2603828;46;20728;31
2022/07/26 10:15:37;;;;;;;5.75;1.83;;;24.20;99.90;;;;;;2604951;46;20053;31
2022/07/26 10:18:12;;;;;;;4.75;2.00;;;24.20;99.90;;;;;;2586388;54;20082;31
2022/07/26 10:20:52;;;;;;;5.80;2.00;;;24.30;99.90;;;;;;2586442;54;20026;31
2022/07/26 10:23:40;;;;;;;5.40;1.90;;;24.40;99.90;;;;;;2585943;54;20117;31
2022/07/26 10:28:48;;;;;;;6.30;2.05;;;24.60;99.90;;;;;;2586491;54;20788;31
2022/07/26 10:31:28;;;;;;;3.65;1.70;;;24.70;99.90;;;;;;2586307;54;20153;31
2022/07/26 10:34:02;;;;;;;7.47;1.90;;;24.80;99.90;;;;;;2586321;54;20882;31
2022/07/26 10:36:40;;;;;;;3.47;1.50;;;24.80;99.90;;;;;;2586466;54;20824;31
2022/07/26 10:39:14;;;;;;;6.10;1.90;;;24.80;99.90;;;;;;2586237;54;20056;31
2022/07/26 10:41:49;;;;;;;3.63;1.67;;;24.90;99.90;;;;;;2683911;39;20789;31
2022/07/26 10:44:28;;;;;;;5.60;1.60;;;24.90;99.90;;;;;;2585720;54;21323;31
2022/07/26 10:47:14;;;;;;;3.95;1.40;;;25.00;99.90;;;;;;2586481;54;20934;31
2022/07/26 10:49:47;;;;;;;;;;;25.10;99.90;;;;;;2586638;54;20899;31
2022/07/26 10:52:18;;;;;;;7.70;1.48;;;25.10;99.90;;;;;;2586396;54;20419;31
2022/07/26 10:55:17;;;;;;;6.70;1.60;;;25.10;99.90;;;;;;2586178;54;20026;31
2022/07/26 10:57:52;;;;;;;4.45;1.00;;;25.10;99.90;;;;;;2586361;54;20242;31
2022/07/26 11:00:28;;;;;;;5.20;1.45;;;25.10;99.90;;;;;;2586391;54;20809;31
2022/07/26 11:03:02;;;;;;;6.38;1.58;;;25.10;99.90;;;;;;2586384;54;20839;31
2022/07/26 11:05:38;;;;;;;6.80;1.50;;;25.20;99.90;;;;;;2586257;54;20970;31
2022/07/26 11:08:13;;;;;;;5.85;1.60;;;25.20;99.90;;;;;;2586287;54;20790;31
2022/07/26 11:10:48;;;;;;;4.65;1.60;;;25.20;99.90;;;;;;2586287;54;20097;31
2022/07/26 11:13:22;;;;;;;4.90;1.60;;;25.30;99.90;;;;;;2586433;54;20085;31
2022/07/26 11:16:05;;;;;;;5.57;2.47;;;25.20;99.90;;;;;;2604944;47;20077;31
2022/07/26 11:18:40;;;;;;;5.25;2.55;;;25.30;99.90;;;;;;2586355;54;20034;31
2022/07/26 11:21:15;;;;;;;6.95;2.38;;;25.30;99.90;;;;;;2586084;54;20057;31
2022/07/26 11:23:50;;;;;;;4.35;1.75;;;25.30;99.90;;;;;;2702342;39;20510;31
2022/07/26 11:26:24;;;;;;;6.25;2.00;;;25.40;99.90;;;;;;2599247;47;21208;31
2022/07/26 11:29:00;;;;;;;6.60;1.70;;;25.40;99.90;;;;;;2586587;54;20916;31
2022/07/26 11:31:41;;;;;;;5.45;1.55;;;25.40;99.90;;;;;;2604752;47;20070;31
2022/07/26 11:34:35;;;;;;;3.07;1.37;;;25.40;99.90;;;;;;2586168;54;20891;31
2022/07/26 11:37:08;;;;;;;6.30;1.90;;;25.40;99.90;;;;;;2586425;54;20901;31
2022/07/26 11:39:43;;;;;;;2.73;1.30;;;25.50;99.90;;;;;;2585962;54;20509;31
2022/07/26 11:42:25;;;;;;;3.65;1.83;;;25.50;99.90;;;;;;2586495;54;20049;31
2022/07/26 11:45:00;;;;;;;5.10;1.35;;;25.50;99.90;;;;;;2585770;54;20523;31
2022/07/26 11:47:38;;;;;;;3.17;1.70;;;25.50;99.90;;;;;;2586175;54;20966;31
2022/07/26 11:50:13;;;;;;;5.75;1.80;;;25.60;99.90;;;;;;2585979;54;20034;31
2022/07/26 11:52:55;;;;;;;4.63;1.60;;;25.70;99.90;;;;;;2604692;47;20026;31
2022/07/26 11:55:32;;;;;;;7.55;1.55;;;25.70;99.90;;;;;;2587006;54;20228;31
2022/07/26 11:58:07;;;;;;;3.30;1.70;;;25.80;99.90;;;;;;2586905;54;20909;31
2022/07/26 12:03:39;;;;;;;3.80;1.60;;;25.90;99.90;;;;;;2586626;54;20846;31
2022/07/26 12:06:15;;;;;;;4.43;1.75;;;25.90;99.90;;;;;;2587026;54;20871;31
2022/07/26 12:08:48;;;;;;;;;;;25.90;99.90;;;;;;2587091;54;20038;31
2022/07/26 12:11:43;;;;;;;6.55;1.40;;;25.90;99.90;;;;;;2586668;54;19942;31
2022/07/26 12:14:26;;;;;;;7.05;2.10;;;25.90;99.90;;;;;;2586938;54;20026;31
2022/07/26 12:17:00;;;;;;;5.78;1.40;;;25.90;99.90;;;;;;2605119;46;20997;31
2022/07/26 12:19:35;;;;;;;3.65;1.30;;;25.80;99.90;;;;;;2586810;54;20874;31
2022/07/26 12:22:10;;;;;;;;;;;25.70;99.90;;;;;;2587183;54;20135;31
2022/07/26 12:24:47;;;;;;;6.15;2.00;;;25.70;99.90;;;;;;2586862;54;19934;31
2022/07/26 12:27:23;;;;;;;6.30;1.60;;;25.70;99.90;;;;;;2586790;54;20073;31
2022/07/26 12:29:56;;;;;;;3.63;1.80;;;25.70;99.90;;;;;;2586805;54;20897;31
2022/07/26 12:32:33;;;;;;;6.75;2.17;;;25.70;99.90;;;;;;2586638;54;20825;31
2022/07/26 12:35:13;;;;;;;8.50;2.60;;;25.70;99.90;;;;;;2586911;54;20760;31
2022/07/26 12:37:52;;;;;;;4.88;1.90;;;25.70;99.90;;;;;;2586941;54;20881;31
2022/07/26 12:40:29;;;;;;;6.55;2.00;;;25.80;99.90;;;;;;2605119;46;20563;31
2022/07/26 12:43:03;;;;;;;6.47;2.20;;;25.80;99.90;;;;;;2586856;54;20936;31
2022/07/26 12:45:38;;;;;;;3.85;1.98;;;25.80;99.90;;;;;;2586789;54;20132;31
2022/07/26 12:48:13;;;;;;;4.30;1.67;;;25.90;99.90;;;;;;2586578;54;20794;31
2022/07/26 12:50:49;;;;;;;;;;;25.90;99.90;;;;;;2586773;54;20316;31
2022/07/26 12:53:24;;;;;;;5.23;2.20;;;25.80;99.90;;;;;;2586514;54;19987;31
2022/07/26 12:55:59;;;;;;;3.63;1.88;;;25.70;99.90;;;;;;2586851;54;20858;31
2022/07/26 12:58:33;;;;;;;4.28;2.22;;;25.70;99.90;;;;;;2586939;54;20752;31
2022/07/26 13:01:13;;;;;;;5.05;1.92;;;25.70;99.90;;;;;;2586790;54;20026;31
2022/07/26 13:03:48;;;;;;;6.90;2.30;;;25.70;99.90;;;;;;2586502;54;20857;31
2022/07/26 13:06:26;;;;;;;6.35;2.40;;;25.70;99.90;;;;;;2604908;46;21174;31
2022/07/26 13:09:00;;;;;;;5.15;1.88;;;25.70;99.90;;;;;;2586729;54;20924;31
2022/07/26 13:11:34;;;;;;;3.80;2.00;;;25.70;99.90;;;;;;2586550;54;20050;31
2022/07/26 13:14:09;;;;;;;3.70;1.95;;;25.80;99.90;;;;;;2605466;46;20057;31
2022/07/26 13:16:45;;;;;;;8.13;2.05;;;25.80;99.90;;;;;;2586651;54;20034;31
2022/07/26 13:19:19;;;;;;;4.75;2.15;;;25.90;99.90;;;;;;2586551;54;20029;31
2022/07/26 13:21:56;;;;;;;5.03;2.00;;;25.90;99.90;;;;;;2586800;54;20030;31
2022/07/26 13:24:30;;;;;;;3.35;1.80;;;25.90;99.90;;;;;;2684654;39;21096;31
2022/07/26 13:27:07;;;;;;;3.23;2.13;;;25.90;99.90;;;;;;2586555;54;20027;31
2022/07/26 13:29:42;;;;;;;6.10;2.20;;;25.80;99.90;;;;;;2586688;54;20245;31
2022/07/26 13:32:17;;;;;;;4.35;2.00;;;25.70;99.90;;;;;;2586470;54;20038;31
2022/07/26 13:34:50;;;;;;;4.53;2.00;;;25.70;99.90;;;;;;2586683;54;20830;31
2022/07/26 13:37:28;;;;;;;5.20;2.22;;;25.70;99.90;;;;;;2605396;46;20872;31
2022/07/26 13:40:03;;;;;;;3.92;2.00;;;25.70;99.90;;;;;;2586636;54;20950;31
2022/07/26 13:42:38;;;;;;;4.30;1.80;;;25.70;99.90;;;;;;2586517;54;20026;31
2022/07/26 13:45:13;;;;;;;5.95;2.30;;;25.70;99.90;;;;;;2586583;54;20934;31
2022/07/26 13:47:46;;;;;;;3.05;1.80;;;25.60;99.90;;;;;;2586564;54;20087;31
2022/07/26 13:50:23;;;;;;;6.43;2.50;;;25.60;99.90;;;;;;2604816;46;20054;31
2022/07/26 13:52:59;;;;;;;7.00;2.30;;;25.60;99.90;;;;;;2605391;46;20814;31
2022/07/26 13:55:34;;;;;;;6.10;1.85;;;25.60;99.90;;;;;;2586691;54;20847;31